Time;durP1;ratioP1;P1;durP2;ratioP2;P2;SDS_P1;SDS_P2;PMS_P1;PMS_P2;Temp;Humidity;BMP_temperature;BMP_pressure;BME280_temperature;BME280_humidity;BME280_pressure;Samples;Min_cycle;Max_cycle;Signal;HPM_P1;HPM_P2
2023/06/04 00:00:54;;;;;;;88.03;84.10;;;;;;;25.14;31.07;102032.06;5011122;28;20105;-76
2023/06/04 00:03:19;;;;;;;91.45;87.22;;;;;;;25.10;31.38;102024.69;5009594;28;20042;-76
2023/06/04 00:05:45;;;;;;;89.70;85.50;;;;;;;25.07;31.44;102028.09;5011381;28;20045;-76
2023/06/04 00:08:10;;;;;;;89.13;85.00;;;;;;;25.03;31.28;102016.84;5018104;28;20037;-77
2023/06/04 00:10:35;;;;;;;89.70;85.53;;;;;;;25.00;31.24;102014.72;5024706;28;20045;-77
2023/06/04 00:13:01;;;;;;;89.78;85.57;;;;;;;24.96;31.12;102020.03;5026521;28;20065;-77
2023/06/04 00:15:26;;;;;;;86.68;82.80;;;;;;;24.92;31.49;102012.66;4988978;28;20034;-77
2023/06/04 00:17:52;;;;;;;88.70;84.63;;;;;;;24.89;31.14;102022.38;4977527;28;20100;-77
2023/06/04 00:20:17;;;;;;;87.80;83.85;;;;;;;24.84;31.22;102022.50;5024140;28;20030;-77
2023/06/04 00:22:43;;;;;;;88.50;84.50;;;;;;;24.81;31.71;102020.34;5026670;28;20042;-77
2023/06/04 00:25:10;;;;;;;90.05;85.47;;;;;;;24.77;31.71;102017.41;5008011;28;20035;-77
2023/06/04 00:27:35;;;;;;;90.95;86.93;;;;;;;24.74;31.39;102011.66;5020775;28;20403;-77
2023/06/04 00:30:01;;;;;;;89.22;85.25;;;;;;;24.70;31.49;102014.22;4991828;28;20026;-77
2023/06/04 00:32:26;;;;;;;85.88;82.03;;;;;;;24.67;31.17;102012.09;5000070;28;20060;-76
2023/06/04 00:34:53;;;;;;;88.75;84.75;;;;;;;24.63;31.19;102021.28;4992005;28;20034;-76
2023/06/04 00:37:20;;;;;;;83.15;79.50;;;;;;;24.59;31.65;102018.31;5017525;28;20041;-76
2023/06/04 00:39:45;;;;;;;86.57;82.57;;;;;;;24.55;31.49;102012.59;5003186;28;20046;-76
2023/06/04 00:42:10;;;;;;;85.53;81.22;;;;;;;24.52;31.69;102018.72;4974365;28;20614;-76
2023/06/04 00:44:36;;;;;;;86.47;82.60;;;;;;;24.48;31.40;102009.41;5018296;28;20034;-76
2023/06/04 00:47:02;;;;;;;87.28;82.43;;;;;;;24.44;31.70;102008.34;5004890;28;20060;-76
2023/06/04 00:49:28;;;;;;;82.28;78.63;;;;;;;24.41;31.39;102015.28;5001302;28;20542;-76
2023/06/04 00:51:53;;;;;;;84.40;80.60;;;;;;;24.37;31.51;102008.75;5040536;28;20033;-76
2023/06/04 00:54:20;;;;;;;80.93;77.32;;;;;;;24.34;31.76;102014.06;4994163;28;20125;-76
2023/06/04 00:56:45;;;;;;;83.82;80.13;;;;;;;24.30;31.94;102019.38;5011330;28;20486;-76
2023/06/04 00:59:11;;;;;;;81.30;77.32;;;;;;;24.27;31.66;102020.00;5019595;28;20044;-76
2023/06/04 01:01:50;;;;;;;83.65;79.85;;;;;;;24.24;31.92;102019.78;5017078;28;20116;-76
2023/06/04 01:04:25;;;;;;;82.82;78.88;;;;;;;24.20;32.00;102014.06;4995914;28;20042;-76
2023/06/04 01:06:56;;;;;;;80.65;77.07;;;;;;;24.15;31.99;102011.41;5001340;28;20042;-76
2023/06/04 01:09:22;;;;;;;82.50;77.82;;;;;;;24.13;32.01;102010.88;5003827;28;20034;-75
2023/06/04 01:11:47;;;;;;;84.00;80.28;;;;;;;24.09;31.80;102009.81;4992273;28;20493;-76
2023/06/04 01:14:12;;;;;;;80.68;76.97;;;;;;;24.06;31.67;102013.19;4990226;28;20038;-76
2023/06/04 01:17:01;;;;;;;87.72;83.82;;;;;;;24.01;31.76;102008.59;4995058;28;20034;-76
2023/06/04 01:19:49;;;;;;;82.30;78.60;;;;;;;23.97;32.29;102008.38;5012594;28;20076;-75
2023/06/04 01:22:25;;;;;;;80.88;77.28;;;;;;;23.94;31.78;102010.94;5007341;28;20549;-76
2023/06/04 01:24:55;;;;;;;82.55;78.90;;;;;;;23.89;31.92;102011.00;5001553;28;20040;-76
2023/06/04 01:27:22;;;;;;;79.90;76.38;;;;;;;23.86;32.20;102009.66;4994506;28;20512;-76
2023/06/04 01:29:49;;;;;;;82.88;79.07;;;;;;;23.84;32.36;102016.59;5006471;28;20098;-75
2023/06/04 01:32:16;;;;;;;83.72;79.70;;;;;;;23.80;32.49;102013.66;5009602;28;20057;-76
2023/06/04 01:34:46;;;;;;;82.63;78.90;;;;;;;23.75;32.04;102009.03;5000813;28;20041;-76
2023/06/04 01:37:12;;;;;;;85.55;81.57;;;;;;;23.72;32.54;102017.91;5013904;28;20045;-76
2023/06/04 01:39:37;;;;;;;83.72;79.93;;;;;;;23.70;32.10;102017.34;5017934;28;20041;-76
2023/06/04 01:42:03;;;;;;;83.05;79.25;;;;;;;23.66;32.43;102010.81;4994467;28;20030;-77
2023/06/04 01:44:28;;;;;;;81.05;77.43;;;;;;;23.63;32.15;102013.34;5003713;28;20044;-76
2023/06/04 01:46:54;;;;;;;81.10;77.40;;;;;;;23.60;32.04;102016.72;5013416;28;20061;-76
2023/06/04 01:49:19;;;;;;;80.97;77.38;;;;;;;23.56;32.28;102008.19;5000310;28;20060;-75
2023/06/04 01:51:45;;;;;;;81.25;77.55;;;;;;;23.53;32.64;102011.56;4994948;28;20066;-75
2023/06/04 01:54:10;;;;;;;80.53;76.93;;;;;;;23.50;32.36;102018.50;5009292;28;20092;-76
2023/06/04 01:56:35;;;;;;;81.10;77.50;;;;;;;23.46;32.41;102016.63;5000376;28;20045;-76
2023/06/04 01:59:02;;;;;;;79.82;76.13;;;;;;;23.44;32.50;102019.72;5004301;28;20052;-77
2023/06/04 02:01:27;;;;;;;74.95;71.05;;;;;;;23.40;32.70;102012.31;4993401;28;20034;-76
2023/06/04 02:03:53;;;;;;;79.38;75.38;;;;;;;23.38;32.48;102022.81;5010218;28;20141;-76
2023/06/04 02:06:18;;;;;;;79.30;75.70;;;;;;;23.34;32.86;102019.88;4999008;28;20037;-77
2023/06/04 02:08:43;;;;;;;77.28;73.78;;;;;;;23.29;32.44;102015.22;5018373;28;20096;-76
2023/06/04 02:11:09;;;;;;;78.55;74.97;;;;;;;23.26;32.40;102018.59;4999594;28;20037;-76
2023/06/04 02:13:35;;;;;;;77.13;73.53;;;;;;;23.23;32.78;102013.66;4976993;28;20037;-75
2023/06/04 02:16:01;;;;;;;78.00;74.43;;;;;;;23.20;32.53;102013.44;4993864;28;20483;-76
2023/06/04 02:18:26;;;;;;;78.32;74.63;;;;;;;23.17;32.99;102017.63;5003525;28;20077;-76
2023/06/04 02:20:52;;;;;;;78.18;74.53;;;;;;;23.13;32.81;102019.31;5020687;28;20053;-77
2023/06/04 02:23:19;;;;;;;78.80;75.10;;;;;;;23.10;32.92;102014.41;4992576;28;20034;-76
2023/06/04 02:25:45;;;;;;;77.68;73.10;;;;;;;23.07;32.84;102015.81;4992658;28;20185;-76
2023/06/04 02:28:11;;;;;;;79.13;75.32;;;;;;;23.04;32.62;102015.59;5001436;28;20387;-77
2023/06/04 02:30:36;;;;;;;76.88;73.45;;;;;;;23.01;32.93;102019.75;5012740;28;20070;-76
2023/06/04 02:33:03;;;;;;;76.65;72.95;;;;;;;22.98;33.12;102022.28;4995690;28;20038;-76
2023/06/04 02:35:29;;;;;;;78.00;74.30;;;;;;;22.96;33.10;102021.75;4993910;28;20053;-76
2023/06/04 02:37:58;;;;;;;76.43;72.93;;;;;;;22.91;32.92;102019.88;5012161;28;20029;-76
2023/06/04 02:40:27;;;;;;;74.85;71.55;;;;;;;22.88;32.97;102018.53;5025627;28;20101;-76
2023/06/04 02:42:54;;;;;;;74.97;71.60;;;;;;;22.85;33.25;102021.03;4993840;28;20026;-76
2023/06/04 02:45:19;;;;;;;76.50;72.70;;;;;;;22.81;32.79;102012.56;4993495;28;20026;-77
2023/06/04 02:47:45;;;;;;;76.50;73.00;;;;;;;22.79;32.71;102017.53;4992423;28;20042;-77
2023/06/04 02:50:11;;;;;;;74.53;71.13;;;;;;;22.75;33.22;102018.41;4999913;28;20080;-77
2023/06/04 02:52:36;;;;;;;73.82;70.45;;;;;;;22.72;32.99;102019.81;4993874;28;20034;-77
2023/06/04 02:55:04;;;;;;;76.50;72.90;;;;;;;22.70;32.93;102024.78;4992399;28;20038;-77
2023/06/04 02:57:30;;;;;;;75.85;72.35;;;;;;;22.67;33.43;102017.13;4999536;28;20052;-77
2023/06/04 02:59:55;;;;;;;77.57;74.07;;;;;;;22.63;33.07;102018.84;5018280;28;20442;-77
2023/06/04 03:02:21;;;;;;;74.78;71.38;;;;;;;22.59;33.09;102015.84;4992229;28;20039;-77
2023/06/04 03:04:50;;;;;;;74.68;71.35;;;;;;;22.57;33.42;102020.00;5028441;28;20091;-77
2023/06/04 03:07:20;;;;;;;76.75;73.25;;;;;;;22.54;33.51;102020.59;5010779;28;20171;-77
2023/06/04 03:09:47;;;;;;;75.75;72.15;;;;;;;22.51;33.11;102022.00;5013401;28;20038;-76
2023/06/04 03:12:12;;;;;;;74.95;71.55;;;;;;;22.46;33.53;102014.59;5011630;28;20045;-76
2023/06/04 03:14:38;;;;;;;73.35;70.05;;;;;;;22.44;33.18;102016.00;4993767;28;20026;-76
2023/06/04 03:17:07;;;;;;;73.57;70.00;;;;;;;22.41;33.31;102011.09;5000653;28;20453;-76
2023/06/04 03:19:41;;;;;;;74.50;70.95;;;;;;;22.38;33.52;102014.44;5003609;28;20030;-75
2023/06/04 03:22:08;;;;;;;71.68;68.13;;;;;;;22.35;33.34;102015.00;4987338;28;20391;-75
2023/06/04 03:24:39;;;;;;;72.20;68.80;;;;;;;22.32;33.50;102012.84;5011212;28;20581;-75
2023/06/04 03:27:05;;;;;;;72.25;68.85;;;;;;;22.29;33.31;102010.66;5012245;28;20037;-75
2023/06/04 03:29:31;;;;;;;72.47;68.40;;;;;;;22.26;33.38;102009.31;5010775;28;20375;-76
2023/06/04 03:31:58;;;;;;;71.10;67.90;;;;;;;22.23;33.63;102007.16;5022199;28;20088;-76
2023/06/04 03:34:26;;;;;;;74.22;70.50;;;;;;;22.20;33.36;102014.06;5001956;28;20034;-76
2023/06/04 03:36:52;;;;;;;71.38;68.07;;;;;;;22.17;33.57;102016.53;5010844;28;20038;-76
2023/06/04 03:39:18;;;;;;;72.97;69.63;;;;;;;22.12;33.49;102006.38;5026239;28;20041;-77
2023/06/04 03:41:44;;;;;;;71.85;68.45;;;;;;;22.10;33.29;102013.28;5011496;28;20342;-76
2023/06/04 03:44:09;;;;;;;71.07;67.82;;;;;;;22.08;33.60;102010.03;5025490;28;20049;-75
2023/06/04 03:46:35;;;;;;;69.90;66.70;;;;;;;22.04;33.42;102015.28;4994307;28;20033;-76
2023/06/04 03:49:01;;;;;;;73.63;70.22;;;;;;;22.00;33.56;102012.28;5010742;28;20046;-76
2023/06/04 03:51:27;;;;;;;69.93;66.68;;;;;;;21.98;33.32;102016.44;5011958;28;20038;-76
2023/06/04 03:53:52;;;;;;;72.85;69.55;;;;;;;21.95;33.30;102014.28;5014663;28;20046;-75
2023/06/04 03:56:18;;;;;;;74.30;70.72;;;;;;;21.91;33.66;102011.25;4990977;28;20410;-75
2023/06/04 03:58:43;;;;;;;71.65;68.35;;;;;;;21.89;33.72;102009.91;4991553;28;20067;-75
2023/06/04 04:01:10;;;;;;;71.70;68.20;;;;;;;21.86;33.31;102013.25;4995876;28;20089;-76
2023/06/04 04:03:36;;;;;;;69.55;66.15;;;;;;;21.81;33.45;102014.91;5010687;28;20054;-75
2023/06/04 04:06:01;;;;;;;68.65;65.25;;;;;;;21.79;33.63;102014.38;5012027;28;20100;-76
2023/06/04 04:08:31;;;;;;;71.18;67.75;;;;;;;21.76;33.47;102017.72;4998556;28;20046;-76
2023/06/04 04:10:59;;;;;;;68.30;65.20;;;;;;;21.74;33.43;102019.09;4975564;28;20130;-75
2023/06/04 04:13:25;;;;;;;70.97;67.47;;;;;;;21.70;33.90;102013.38;5014949;28;20081;-75
2023/06/04 04:15:53;;;;;;;68.45;65.30;;;;;;;21.68;33.45;102017.53;5005224;28;20432;-75
2023/06/04 04:18:22;;;;;;;69.60;66.30;;;;;;;21.64;33.79;102020.00;5006882;28;20502;-75
2023/06/04 04:20:47;;;;;;;69.75;66.25;;;;;;;21.61;33.73;102026.91;4992360;28;20116;-75
2023/06/04 04:23:13;;;;;;;69.45;66.35;;;;;;;21.59;33.57;102020.84;5017554;28;20371;-76
2023/06/04 04:25:39;;;;;;;69.88;66.55;;;;;;;21.55;33.93;102019.81;5012248;28;20065;-76
2023/06/04 04:28:08;;;;;;;68.93;65.32;;;;;;;21.54;33.82;102017.31;4994364;28;20454;-76
2023/06/04 04:30:35;;;;;;;69.70;66.30;;;;;;;21.50;33.87;102011.59;5010338;28;20058;-76
2023/06/04 04:33:05;;;;;;;69.20;65.90;;;;;;;21.47;33.48;102012.16;5011683;28;20050;-77
2023/06/04 04:35:32;;;;;;;69.95;66.75;;;;;;;21.45;34.04;102016.31;5016750;28;20115;-76
2023/06/04 04:37:58;;;;;;;68.03;64.60;;;;;;;21.42;33.77;102017.69;5013290;28;20133;-76
2023/06/04 04:40:24;;;;;;;68.88;65.70;;;;;;;21.39;33.50;102018.25;5009382;28;20030;-77
2023/06/04 04:42:50;;;;;;;67.53;64.22;;;;;;;21.37;33.98;102020.44;5010256;28;20486;-76
2023/06/04 04:45:17;;;;;;;67.30;64.07;;;;;;;21.35;34.00;102019.91;5023996;28;20473;-77
2023/06/04 04:47:42;;;;;;;68.70;65.40;;;;;;;21.32;33.71;102020.47;5011075;28;20034;-76
2023/06/04 04:50:08;;;;;;;68.45;65.00;;;;;;;21.31;33.81;102029.81;4993415;28;20038;-76
2023/06/04 04:52:33;;;;;;;68.03;64.82;;;;;;;21.28;33.61;102030.38;4978109;28;20030;-76
2023/06/04 04:54:59;;;;;;;67.10;64.00;;;;;;;21.25;34.31;102026.28;5024000;28;20116;-79
2023/06/04 04:57:24;;;;;;;67.82;64.63;;;;;;;21.23;33.73;102025.75;5013869;28;20364;-77
2023/06/04 04:59:50;;;;;;;66.53;63.42;;;;;;;21.22;33.86;102023.25;5014036;28;20117;-76
2023/06/04 05:02:15;;;;;;;67.00;63.90;;;;;;;21.16;34.28;102028.78;5013269;28;20029;-76
2023/06/04 05:04:41;;;;;;;68.70;65.60;;;;;;;21.14;33.79;102025.53;5022030;28;20038;-76
2023/06/04 05:07:06;;;;;;;67.40;64.30;;;;;;;21.13;34.15;102029.38;5013483;28;20043;-77
2023/06/04 05:09:32;;;;;;;69.30;65.88;;;;;;;21.11;34.22;102028.81;4995306;28;20053;-77
2023/06/04 05:11:57;;;;;;;65.25;62.17;;;;;;;21.09;34.28;102039.28;5012375;28;20049;-77
2023/06/04 05:14:23;;;;;;;66.05;62.88;;;;;;;21.07;33.98;102037.94;5014785;28;20088;-77
2023/06/04 05:16:48;;;;;;;67.70;64.53;;;;;;;21.06;33.91;102036.28;5014249;28;20508;-76
2023/06/04 05:19:18;;;;;;;63.55;60.60;;;;;;;21.03;34.29;102043.16;5014912;28;20030;-76
2023/06/04 05:21:44;;;;;;;64.35;61.45;;;;;;;21.01;34.45;102045.34;5016518;28;20047;-77
2023/06/04 05:24:10;;;;;;;66.13;62.88;;;;;;;21.00;34.38;102049.22;5028593;28;20116;-75
2023/06/04 05:26:36;;;;;;;67.13;63.63;;;;;;;20.99;34.18;102049.47;5039960;28;20115;-75
2023/06/04 05:29:04;;;;;;;63.45;60.35;;;;;;;20.98;34.20;102056.91;4999306;28;20049;-75
2023/06/04 05:31:33;;;;;;;64.80;61.63;;;;;;;20.96;34.19;102051.72;5016884;28;20136;-75
2023/06/04 05:34:04;;;;;;;65.60;62.40;;;;;;;20.95;34.39;102050.06;5014120;28;20453;-75
2023/06/04 05:36:30;;;;;;;66.70;63.53;;;;;;;20.94;34.15;102045.66;5004986;28;20048;-75
2023/06/04 05:38:57;;;;;;;65.53;62.42;;;;;;;20.93;34.29;102046.75;5013324;28;20108;-76
2023/06/04 05:41:27;;;;;;;63.80;60.80;;;;;;;20.92;34.11;102044.31;5013093;28;20502;-76
2023/06/04 05:43:53;;;;;;;63.65;60.42;;;;;;;20.92;34.41;102050.63;5014151;28;20257;-76
2023/06/04 05:46:18;;;;;;;64.28;61.03;;;;;;;20.91;34.27;102048.13;5008783;28;20038;-75
2023/06/04 05:48:44;;;;;;;63.10;60.03;;;;;;;20.91;34.26;102048.97;5014596;28;20459;-75
2023/06/04 05:51:09;;;;;;;64.05;60.95;;;;;;;20.90;34.08;102052.00;5013064;28;20084;-75
2023/06/04 05:53:35;;;;;;;64.82;61.75;;;;;;;20.90;34.23;102047.31;5012609;28;20378;-75
2023/06/04 05:56:00;;;;;;;64.15;60.88;;;;;;;20.90;34.38;102049.25;5013014;28;20470;-75
2023/06/04 05:58:26;;;;;;;64.60;61.65;;;;;;;20.90;34.01;102054.75;5018523;28;20037;-74
2023/06/04 06:00:51;;;;;;;63.58;60.58;;;;;;;20.90;34.02;102052.00;5005931;28;20040;-75
2023/06/04 06:03:17;;;;;;;63.05;60.13;;;;;;;20.90;34.09;102052.00;5029120;28;20478;-75
2023/06/04 06:05:43;;;;;;;64.32;61.00;;;;;;;20.89;34.04;102048.44;5011685;28;20470;-75
2023/06/04 06:08:09;;;;;;;66.00;62.28;;;;;;;20.90;34.09;102061.06;5008736;28;20033;-75
2023/06/04 06:10:35;;;;;;;64.82;61.78;;;;;;;20.90;34.35;102052.81;4993067;28;20153;-75
2023/06/04 06:13:00;;;;;;;64.95;61.75;;;;;;;20.91;34.26;102059.13;4994621;28;20034;-75
2023/06/04 06:15:26;;;;;;;64.32;61.30;;;;;;;20.92;34.14;102061.59;4992921;28;20034;-75
2023/06/04 06:17:52;;;;;;;63.92;60.83;;;;;;;20.92;34.48;102058.84;5008161;28;20035;-75
2023/06/04 06:20:18;;;;;;;64.00;61.03;;;;;;;20.93;34.25;102059.69;4993252;28;20115;-75
2023/06/04 06:22:44;;;;;;;65.40;62.30;;;;;;;20.95;34.28;102057.47;4993766;28;20034;-75
2023/06/04 06:25:12;;;;;;;63.90;60.95;;;;;;;20.95;34.05;102058.28;5019264;28;20093;-75
2023/06/04 06:27:39;;;;;;;64.57;61.53;;;;;;;20.98;34.33;102064.34;4998173;28;20058;-75
2023/06/04 06:30:06;;;;;;;64.38;61.28;;;;;;;20.97;34.31;102069.00;5025680;28;20438;-74
2023/06/04 06:32:32;;;;;;;66.45;63.33;;;;;;;20.99;33.98;102069.56;4992395;28;20050;-75
2023/06/04 06:34:57;;;;;;;64.80;61.38;;;;;;;21.00;34.06;102071.19;5035758;28;20553;-74
2023/06/04 06:37:23;;;;;;;65.05;61.95;;;;;;;21.01;33.86;102064.56;4999149;28;20046;-75
2023/06/04 06:39:48;;;;;;;65.90;62.75;;;;;;;21.01;34.01;102061.84;5005082;28;20434;-75
2023/06/04 06:42:16;;;;;;;65.43;62.38;;;;;;;21.03;34.19;102067.88;5003407;28;20042;-75
2023/06/04 06:44:42;;;;;;;67.20;63.90;;;;;;;21.03;34.22;102067.88;4993500;28;20138;-76
2023/06/04 06:47:07;;;;;;;65.15;62.05;;;;;;;21.05;34.31;102067.59;5008851;28;20062;-75
2023/06/04 06:49:33;;;;;;;65.35;62.25;;;;;;;21.07;34.32;102070.91;4993020;28;20034;-75
2023/06/04 06:51:58;;;;;;;66.30;63.20;;;;;;;21.09;34.48;102069.50;4999968;28;20117;-75
2023/06/04 06:54:24;;;;;;;67.68;64.28;;;;;;;21.11;34.71;102074.72;5011271;28;20087;-76
2023/06/04 06:56:50;;;;;;;67.35;63.85;;;;;;;21.14;34.26;102068.63;5027481;28;20052;-76
2023/06/04 06:59:16;;;;;;;66.60;63.53;;;;;;;21.17;34.60;102070.84;5016572;28;20027;-75
2023/06/04 07:01:41;;;;;;;68.40;65.13;;;;;;;21.18;34.76;102064.25;5007724;28;20030;-76
2023/06/04 07:04:07;;;;;;;66.00;62.80;;;;;;;21.21;34.84;102068.34;4998527;28;20050;-76
2023/06/04 07:06:33;;;;;;;67.72;64.45;;;;;;;21.23;34.65;102074.38;4993184;28;20082;-76
2023/06/04 07:08:58;;;;;;;66.85;63.50;;;;;;;21.25;34.27;102066.69;4993436;28;20045;-77
2023/06/04 07:11:25;;;;;;;67.63;63.88;;;;;;;21.27;34.51;102070.78;5017087;28;20109;-76
2023/06/04 07:13:51;;;;;;;69.22;65.90;;;;;;;21.29;34.40;102076.00;4995042;28;20042;-76
2023/06/04 07:16:17;;;;;;;66.72;63.53;;;;;;;21.31;34.38;102071.84;4996061;28;20375;-76
2023/06/04 07:18:43;;;;;;;70.10;66.38;;;;;;;21.34;34.56;102074.06;5008605;28;20084;-76
2023/06/04 07:21:08;;;;;;;67.60;64.50;;;;;;;21.37;34.46;102079.00;5006902;28;20030;-76
2023/06/04 07:23:34;;;;;;;68.57;65.00;;;;;;;21.41;34.52;102079.25;5010350;28;20038;-75
2023/06/04 07:25:59;;;;;;;69.80;66.20;;;;;;;21.45;34.63;102087.78;5000447;28;20057;-75
2023/06/04 07:28:25;;;;;;;69.68;66.38;;;;;;;21.47;34.61;102075.41;4996293;28;20489;-74
2023/06/04 07:30:50;;;;;;;69.30;65.90;;;;;;;21.51;34.86;102072.88;4990233;28;20040;-76
2023/06/04 07:33:16;;;;;;;70.28;66.93;;;;;;;21.54;34.29;102077.81;5004268;28;20479;-75
2023/06/04 07:35:41;;;;;;;69.05;65.85;;;;;;;21.58;34.89;102079.72;4992483;28;20069;-75
2023/06/04 07:38:07;;;;;;;69.47;66.15;;;;;;;21.63;34.51;102080.81;5007960;28;20048;-76
2023/06/04 07:40:33;;;;;;;69.90;66.53;;;;;;;21.67;34.86;102074.44;4997719;28;20474;-77
2023/06/04 07:42:58;;;;;;;69.90;66.70;;;;;;;21.72;34.97;102084.56;5008457;28;20140;-76
2023/06/04 07:45:23;;;;;;;70.93;67.47;;;;;;;21.77;34.27;102079.03;5013539;28;20037;-77
2023/06/04 07:47:49;;;;;;;69.75;66.45;;;;;;;21.80;34.57;102082.06;4994884;28;20041;-75
2023/06/04 07:50:14;;;;;;;70.22;66.82;;;;;;;21.86;34.55;102085.56;4992781;28;20027;-77
2023/06/04 07:52:40;;;;;;;72.35;68.45;;;;;;;21.91;34.71;102085.53;4993523;28;20368;-76
2023/06/04 07:55:06;;;;;;;69.93;66.70;;;;;;;21.96;35.04;102085.50;5018050;28;20071;-78
2023/06/04 07:57:31;;;;;;;72.53;68.93;;;;;;;22.03;34.28;102091.50;5011818;28;20517;-79
2023/06/04 07:59:57;;;;;;;72.03;68.70;;;;;;;22.09;34.54;102083.19;5010588;28;20101;-79
2023/06/04 08:02:23;;;;;;;73.03;69.32;;;;;;;22.14;34.49;102085.91;5014884;28;20141;-76
2023/06/04 08:04:48;;;;;;;76.97;72.90;;;;;;;22.20;33.93;102080.13;5013056;28;20124;-79
2023/06/04 08:07:14;;;;;;;71.95;68.60;;;;;;;22.26;33.87;102091.91;4992560;28;20038;-78
2023/06/04 08:09:40;;;;;;;73.00;69.65;;;;;;;22.32;34.54;102087.16;5003073;28;20029;-78
2023/06/04 08:12:06;;;;;;;72.93;69.13;;;;;;;22.37;34.61;102085.16;5019118;28;20041;-78
2023/06/04 08:14:32;;;;;;;74.32;70.82;;;;;;;22.44;35.11;102085.66;5004857;28;20125;-78
2023/06/04 08:16:58;;;;;;;72.93;69.50;;;;;;;22.51;34.89;102084.50;5005452;28;20137;-78
2023/06/04 08:19:23;;;;;;;78.00;74.40;;;;;;;22.59;34.97;102083.88;5012990;28;20030;-77
2023/06/04 08:21:49;;;;;;;75.68;72.18;;;;;;;22.67;33.84;102086.78;4990845;28;20125;-77
2023/06/04 08:24:15;;;;;;;73.88;70.47;;;;;;;22.74;34.34;102082.88;5002340;28;20065;-77
2023/06/04 08:26:40;;;;;;;76.32;72.85;;;;;;;22.80;34.10;102087.22;5020559;28;20395;-78
2023/06/04 08:29:06;;;;;;;79.20;75.60;;;;;;;22.88;34.31;102097.56;4996088;28;20109;-78
2023/06/04 08:31:32;;;;;;;78.22;74.43;;;;;;;22.96;34.64;102096.16;4999888;28;20082;-76
2023/06/04 08:33:58;;;;;;;77.65;74.05;;;;;;;23.04;34.12;102092.75;5022005;28;20037;-77
2023/06/04 08:36:23;;;;;;;78.70;74.88;;;;;;;23.10;33.26;102083.31;5020215;28;20029;-77
2023/06/04 08:38:50;;;;;;;79.43;75.82;;;;;;;23.19;34.29;102086.25;5003070;28;20046;-77
2023/06/04 08:41:27;;;;;;;79.10;75.60;;;;;;;23.26;33.61;102089.47;5013643;28;20386;-77
2023/06/04 08:44:01;;;;;;;81.95;78.05;;;;;;;23.37;33.71;102090.13;5019000;28;20038;-77
2023/06/04 08:46:28;;;;;;;79.00;75.50;;;;;;;23.45;34.14;102092.22;5018908;28;20057;-77
2023/06/04 08:48:58;;;;;;;81.97;78.28;;;;;;;23.53;34.39;102092.34;5029830;28;20506;-77
2023/06/04 08:51:24;;;;;;;83.18;78.55;;;;;;;23.62;33.78;102089.75;5015157;28;20056;-75
2023/06/04 08:53:53;;;;;;;85.32;80.68;;;;;;;23.71;33.22;102089.91;5013793;28;20113;-76
2023/06/04 08:56:20;;;;;;;81.60;77.90;;;;;;;23.81;33.11;102084.25;4996540;28;20061;-76
2023/06/04 08:58:47;;;;;;;86.47;82.57;;;;;;;23.89;33.20;102086.34;5009707;28;20133;-72
2023/06/04 09:01:14;;;;;;;85.47;81.57;;;;;;;23.98;33.12;102094.75;5014203;28;20119;-78
2023/06/04 09:03:41;;;;;;;85.50;81.70;;;;;;;24.05;33.33;102086.91;5014565;28;20030;-77
2023/06/04 09:06:07;;;;;;;87.78;83.80;;;;;;;24.15;33.43;102096.97;5014077;28;20073;-77
2023/06/04 09:08:37;;;;;;;85.90;81.90;;;;;;;24.25;33.32;102105.06;5001304;28;20540;-75
2023/06/04 09:11:09;;;;;;;85.00;81.00;;;;;;;24.34;33.66;102095.00;5028125;28;20046;-75
2023/06/04 09:13:35;;;;;;;85.10;81.20;;;;;;;24.44;32.81;102106.97;4999648;28;20022;-78
2023/06/04 09:16:02;;;;;;;87.28;83.38;;;;;;;24.53;32.92;102099.66;5005393;28;20042;-83
2023/06/04 09:18:28;;;;;;;88.00;84.13;;;;;;;24.63;31.88;102110.50;5007832;28;20036;-78
2023/06/04 09:21:06;;;;;;;89.75;85.75;;;;;;;24.73;30.63;102101.22;5000129;28;20109;-79
2023/06/04 09:23:34;;;;;;;;;;;;;;;24.80;31.86;102093.34;5002364;28;20037;-73
2023/06/04 09:26:07;;;;;;;;;;;;;;;24.86;31.52;102092.09;4995775;28;19914;-75
2023/06/04 09:28:33;;;;;;;88.05;84.15;;;;;;;24.93;31.69;102103.56;4995633;28;19913;-74
2023/06/04 09:30:58;;;;;;;89.43;85.22;;;;;;;25.00;31.93;102090.16;5012515;28;20092;-74
2023/06/04 09:33:26;;;;;;;88.22;84.22;;;;;;;25.09;32.08;102089.44;5013945;28;20057;-75
2023/06/04 09:35:56;;;;;;;95.07;90.50;;;;;;;25.19;31.88;102101.13;5028585;28;20050;-75
2023/06/04 09:38:22;;;;;;;95.72;91.43;;;;;;;25.29;31.67;102096.50;5013189;28;20317;-74
2023/06/04 09:40:49;;;;;;;92.30;88.18;;;;;;;25.38;31.09;102103.75;5030081;28;20111;-74
2023/06/04 09:43:23;;;;;;;94.18;89.70;;;;;;;25.50;30.96;102099.63;5013275;28;20038;-74
2023/06/04 09:45:49;;;;;;;94.68;90.53;;;;;;;25.59;30.83;102098.56;5013617;28;20077;-75
2023/06/04 09:48:21;;;;;;;95.75;91.05;;;;;;;25.69;29.71;102089.22;5002654;28;20437;-75
2023/06/04 09:50:47;;;;;;;96.55;92.38;;;;;;;25.79;29.98;102091.75;4994885;28;20030;-75
2023/06/04 09:53:20;;;;;;;99.07;94.53;;;;;;;25.89;31.26;102091.53;5011062;28;20037;-74
2023/06/04 09:55:59;;;;;;;100.60;96.20;;;;;;;25.99;31.12;102087.69;5006819;28;20130;-72
2023/06/04 09:58:27;;;;;;;97.55;93.15;;;;;;;26.10;30.64;102093.78;5006397;28;20030;-72
2023/06/04 10:00:56;;;;;;;101.60;97.10;;;;;;;26.19;29.57;102078.06;5002482;28;20038;-76
2023/06/04 10:03:27;;;;;;;98.65;94.35;;;;;;;26.29;29.74;102083.31;5001299;28;20048;-75
2023/06/04 10:05:57;;;;;;;101.47;97.03;;;;;;;26.39;28.14;102081.44;5023913;28;20041;-74
2023/06/04 10:08:26;;;;;;;99.47;95.18;;;;;;;26.48;26.70;102083.09;5002733;28;20048;-73
2023/06/04 10:10:54;;;;;;;99.00;94.65;;;;;;;26.58;27.71;102089.53;5012685;28;20044;-73
2023/06/04 10:13:22;;;;;;;103.22;98.72;;;;;;;26.67;27.83;102084.84;5011118;28;20030;-74
2023/06/04 10:15:49;;;;;;;;;;;;;;;26.74;28.91;102074.94;5012752;28;20042;-76
2023/06/04 10:18:15;;;;;;;106.07;101.47;;;;;;;26.85;27.51;102085.72;5008777;28;20247;-75
2023/06/04 10:20:41;;;;;;;103.68;99.05;;;;;;;26.92;26.23;102077.75;4993153;28;20038;-74
2023/06/04 10:23:07;;;;;;;104.45;99.65;;;;;;;27.02;27.26;102076.66;4993754;28;20034;-75
2023/06/04 10:25:35;;;;;;;106.32;101.75;;;;;;;27.10;27.43;102081.41;5025858;28;20585;-75
2023/06/04 10:28:01;;;;;;;109.57;104.87;;;;;;;27.20;26.65;102083.88;5012802;28;20046;-73
2023/06/04 10:30:27;;;;;;;107.95;103.20;;;;;;;27.30;27.06;102088.31;5013963;28;20041;-74
2023/06/04 10:32:53;;;;;;;111.47;106.68;;;;;;;27.38;27.12;102087.50;5012143;28;20054;-76
2023/06/04 10:35:32;;;;;;;107.13;102.53;;;;;;;27.48;27.85;102091.94;5022986;28;20033;-75
2023/06/04 10:38:16;;;;;;;111.35;106.55;;;;;;;27.57;26.10;102079.69;4993829;28;20065;-75
2023/06/04 10:40:42;;;;;;;109.00;104.38;;;;;;;27.66;25.96;102078.88;5011639;28;20037;-75
2023/06/04 10:43:11;;;;;;;113.97;108.97;;;;;;;27.74;26.66;102073.28;5002447;28;20438;-74
2023/06/04 10:45:37;;;;;;;109.05;104.38;;;;;;;27.83;27.29;102082.47;5013755;28;20040;-75
2023/06/04 10:48:10;;;;;;;111.10;106.30;;;;;;;27.92;26.39;102074.16;5007218;28;20038;-74
2023/06/04 10:50:49;;;;;;;111.43;106.68;;;;;;;28.01;25.28;102077.72;4994005;28;20031;-74
2023/06/04 10:53:16;;;;;;;114.38;109.47;;;;;;;28.11;26.26;102081.31;4993462;28;20034;-74
2023/06/04 10:55:46;;;;;;;116.20;111.03;;;;;;;28.19;25.29;102092.38;5008167;28;20041;-73
2023/06/04 10:58:12;;;;;;;114.13;109.18;;;;;;;28.27;24.71;102082.38;5001355;28;20038;-74
2023/06/04 11:00:43;;;;;;;114.22;109.32;;;;;;;28.35;26.50;102080.72;5002145;28;20038;-75
2023/06/04 11:03:12;;;;;;;119.57;114.47;;;;;;;28.43;26.67;102085.47;5030828;28;20094;-74
2023/06/04 11:05:42;;;;;;;114.88;110.00;;;;;;;28.52;25.49;102074.34;4999631;28;20041;-74
2023/06/04 11:08:10;;;;;;;119.82;114.70;;;;;;;28.60;24.55;102076.25;5009789;28;20112;-74